sensor_id;sensor_type;location;lat;lon;timestamp;pressure;altitude;pressure_sealevel;temperature;humidity
56825;BME280;42705;50.326;18.772;2022-10-13T00:03:41;99306.99;;;8.26;58.08
56825;BME280;42705;50.326;18.772;2022-10-13T00:09:06;99306.75;;;8.24;58.23
56825;BME280;42705;50.326;18.772;2022-10-13T00:14:27;99303.25;;;8.18;58.38
56825;BME280;42705;50.326;18.772;2022-10-13T00:19:48;99307.83;;;8.14;58.49
56825;BME280;42705;50.326;18.772;2022-10-13T00:25:09;99299.20;;;8.06;58.59
56825;BME280;42705;50.326;18.772;2022-10-13T00:30:33;99296.92;;;8.02;58.63
56825;BME280;42705;50.326;18.772;2022-10-13T00:35:56;99294.16;;;7.98;58.71
56825;BME280;42705;50.326;18.772;2022-10-13T00:41:17;99298.00;;;7.92;58.73
56825;BME280;42705;50.326;18.772;2022-10-13T00:46:39;99292.05;;;7.90;58.82
56825;BME280;42705;50.326;18.772;2022-10-13T00:52:00;99294.73;;;7.95;59.01
56825;BME280;42705;50.326;18.772;2022-10-13T00:57:21;99293.67;;;7.98;59.06
56825;BME280;42705;50.326;18.772;2022-10-13T01:02:43;99298.45;;;7.91;59.02
56825;BME280;42705;50.326;18.772;2022-10-13T01:08:04;99294.43;;;7.80;59.08
56825;BME280;42705;50.326;18.772;2022-10-13T01:13:41;99291.95;;;7.71;59.13
56825;BME280;42705;50.326;18.772;2022-10-13T01:37:15;99274.67;;;7.63;59.78
56825;BME280;42705;50.326;18.772;2022-10-13T01:43:00;99275.16;;;7.62;59.86
56825;BME280;42705;50.326;18.772;2022-10-13T01:48:36;99268.08;;;7.57;59.91
56825;BME280;42705;50.326;18.772;2022-10-13T01:53:58;99258.55;;;7.50;59.97
56825;BME280;42705;50.326;18.772;2022-10-13T01:59:20;99257.61;;;7.51;60.06
56825;BME280;42705;50.326;18.772;2022-10-13T02:04:52;99254.31;;;7.55;60.22
56825;BME280;42705;50.326;18.772;2022-10-13T02:10:22;99258.42;;;7.52;60.36
56825;BME280;42705;50.326;18.772;2022-10-13T02:15:51;99246.89;;;7.49;60.44
56825;BME280;42705;50.326;18.772;2022-10-13T02:21:14;99241.52;;;7.45;60.49
56825;BME280;42705;50.326;18.772;2022-10-13T02:26:37;99237.73;;;7.36;60.54
56825;BME280;42705;50.326;18.772;2022-10-13T02:32:04;99230.97;;;7.33;60.60
56825;BME280;42705;50.326;18.772;2022-10-13T02:37:25;99233.53;;;7.41;60.76
56825;BME280;42705;50.326;18.772;2022-10-13T02:42:46;99234.56;;;7.38;60.79
56825;BME280;42705;50.326;18.772;2022-10-13T02:48:07;99242.33;;;7.32;60.69
56825;BME280;42705;50.326;18.772;2022-10-13T02:53:29;99242.20;;;7.14;60.54
56825;BME280;42705;50.326;18.772;2022-10-13T02:58:50;99238.07;;;6.97;60.66
56825;BME280;42705;50.326;18.772;2022-10-13T03:04:11;99241.38;;;6.86;60.73
56825;BME280;42705;50.326;18.772;2022-10-13T03:09:32;99236.16;;;6.78;60.83
56825;BME280;42705;50.326;18.772;2022-10-13T03:14:53;99235.52;;;6.82;61.09
56825;BME280;42705;50.326;18.772;2022-10-13T03:20:15;99226.03;;;6.81;61.15
56825;BME280;42705;50.326;18.772;2022-10-13T03:25:37;99220.53;;;6.78;61.17
56825;BME280;42705;50.326;18.772;2022-10-13T03:31:04;99220.93;;;6.72;61.28
56825;BME280;42705;50.326;18.772;2022-10-13T03:36:26;99209.60;;;6.66;61.41
56825;BME280;42705;50.326;18.772;2022-10-13T03:41:47;99213.14;;;6.65;61.57
56825;BME280;42705;50.326;18.772;2022-10-13T03:47:10;99209.52;;;6.68;61.92
56825;BME280;42705;50.326;18.772;2022-10-13T03:52:31;99206.06;;;6.67;62.09
56825;BME280;42705;50.326;18.772;2022-10-13T03:57:53;99212.32;;;6.64;62.21
56825;BME280;42705;50.326;18.772;2022-10-13T04:03:14;99212.11;;;6.60;62.31
56825;BME280;42705;50.326;18.772;2022-10-13T04:08:36;99210.36;;;6.61;62.31
56825;BME280;42705;50.326;18.772;2022-10-13T04:13:57;99205.98;;;6.69;62.44
56825;BME280;42705;50.326;18.772;2022-10-13T04:19:18;99214.79;;;6.73;62.39
56825;BME280;42705;50.326;18.772;2022-10-13T04:24:40;99213.23;;;6.71;62.38
56825;BME280;42705;50.326;18.772;2022-10-13T04:30:01;99213.14;;;6.65;62.48
56825;BME280;42705;50.326;18.772;2022-10-13T04:35:23;99209.72;;;6.64;62.47
56825;BME280;42705;50.326;18.772;2022-10-13T04:40:45;99217.05;;;6.65;62.49
56825;BME280;42705;50.326;18.772;2022-10-13T04:46:14;99219.84;;;6.62;62.37
56825;BME280;42705;50.326;18.772;2022-10-13T04:51:38;99219.86;;;6.55;62.38
56825;BME280;42705;50.326;18.772;2022-10-13T04:56:59;99221.53;;;6.41;62.27
56825;BME280;42705;50.326;18.772;2022-10-13T05:02:20;99219.50;;;6.32;62.34
56825;BME280;42705;50.326;18.772;2022-10-13T05:07:41;99221.48;;;6.28;62.33
56825;BME280;42705;50.326;18.772;2022-10-13T05:13:03;99217.75;;;6.32;62.57
56825;BME280;42705;50.326;18.772;2022-10-13T05:18:24;99214.48;;;6.36;62.76
56825;BME280;42705;50.326;18.772;2022-10-13T05:23:45;99217.74;;;6.40;62.88
56825;BME280;42705;50.326;18.772;2022-10-13T05:29:06;99213.09;;;6.37;62.95
56825;BME280;42705;50.326;18.772;2022-10-13T05:34:28;99209.73;;;6.43;63.03
56825;BME280;42705;50.326;18.772;2022-10-13T05:39:49;99207.23;;;6.48;63.25
56825;BME280;42705;50.326;18.772;2022-10-13T05:45:11;99203.94;;;6.59;63.31
56825;BME280;42705;50.326;18.772;2022-10-13T05:50:33;99206.17;;;6.58;63.24
56825;BME280;42705;50.326;18.772;2022-10-13T05:55:55;99198.67;;;6.54;63.35
56825;BME280;42705;50.326;18.772;2022-10-13T06:01:21;99200.31;;;6.62;63.40
56825;BME280;42705;50.326;18.772;2022-10-13T06:06:44;99206.80;;;6.69;63.44
56825;BME280;42705;50.326;18.772;2022-10-13T06:12:08;99221.97;;;6.62;63.45
56825;BME280;42705;50.326;18.772;2022-10-13T06:17:30;99226.00;;;6.54;63.67
56825;BME280;42705;50.326;18.772;2022-10-13T06:22:53;99211.69;;;6.54;63.91
56825;BME280;42705;50.326;18.772;2022-10-13T06:28:16;99216.23;;;6.64;64.04
56825;BME280;42705;50.326;18.772;2022-10-13T06:33:38;99212.16;;;6.80;64.19
56825;BME280;42705;50.326;18.772;2022-10-13T06:38:59;99210.27;;;6.97;64.20
56825;BME280;42705;50.326;18.772;2022-10-13T06:44:21;99205.88;;;6.98;64.17
56825;BME280;42705;50.326;18.772;2022-10-13T06:49:41;99196.68;;;7.19;64.50
56825;BME280;42705;50.326;18.772;2022-10-13T06:55:04;99196.68;;;7.19;64.50
56825;BME280;42705;50.326;18.772;2022-10-13T07:00:27;99195.53;;;7.44;64.47
56825;BME280;42705;50.326;18.772;2022-10-13T07:05:48;99200.92;;;7.61;64.49
56825;BME280;42705;50.326;18.772;2022-10-13T07:11:12;99202.67;;;7.80;64.38
56825;BME280;42705;50.326;18.772;2022-10-13T07:16:34;99197.07;;;7.92;64.29
56825;BME280;42705;50.326;18.772;2022-10-13T07:21:56;99194.61;;;8.09;64.19
56825;BME280;42705;50.326;18.772;2022-10-13T07:27:17;99201.32;;;8.32;64.22
56825;BME280;42705;50.326;18.772;2022-10-13T07:32:38;99186.98;;;8.51;64.21
56825;BME280;42705;50.326;18.772;2022-10-13T07:38:03;99185.69;;;8.69;64.19
56825;BME280;42705;50.326;18.772;2022-10-13T07:43:24;99186.10;;;8.82;64.11
56825;BME280;42705;50.326;18.772;2022-10-13T07:48:45;99184.42;;;9.00;63.93
56825;BME280;42705;50.326;18.772;2022-10-13T07:54:06;99186.62;;;9.17;63.77
56825;BME280;42705;50.326;18.772;2022-10-13T07:59:32;99184.27;;;9.25;63.47
56825;BME280;42705;50.326;18.772;2022-10-13T08:04:53;99175.40;;;9.34;63.24
56825;BME280;42705;50.326;18.772;2022-10-13T08:10:14;99169.47;;;9.43;63.12
56825;BME280;42705;50.326;18.772;2022-10-13T08:15:43;99170.93;;;9.53;63.03
56825;BME280;42705;50.326;18.772;2022-10-13T08:21:04;99167.48;;;9.64;62.86
56825;BME280;42705;50.326;18.772;2022-10-13T08:26:27;99167.27;;;9.84;62.90
56825;BME280;42705;50.326;18.772;2022-10-13T08:31:50;99161.23;;;10.06;62.84
56825;BME280;42705;50.326;18.772;2022-10-13T08:37:14;99151.21;;;10.23;62.69
56825;BME280;42705;50.326;18.772;2022-10-13T08:42:36;99141.31;;;10.38;62.59
56825;BME280;42705;50.326;18.772;2022-10-13T08:48:01;99150.94;;;10.54;62.32
56825;BME280;42705;50.326;18.772;2022-10-13T08:53:26;99142.82;;;10.69;62.25
56825;BME280;42705;50.326;18.772;2022-10-13T08:58:51;99137.77;;;10.83;61.98
56825;BME280;42705;50.326;18.772;2022-10-13T09:04:32;99135.65;;;11.04;61.69
56825;BME280;42705;50.326;18.772;2022-10-13T09:09:59;99134.84;;;11.24;61.21
56825;BME280;42705;50.326;18.772;2022-10-13T09:15:21;99127.92;;;11.44;61.10
56825;BME280;42705;50.326;18.772;2022-10-13T09:20:43;99128.98;;;11.63;61.02
56825;BME280;42705;50.326;18.772;2022-10-13T09:26:08;99120.86;;;11.82;60.69
56825;BME280;42705;50.326;18.772;2022-10-13T09:31:40;99117.41;;;11.97;60.46
56825;BME280;42705;50.326;18.772;2022-10-13T09:37:04;99106.90;;;12.12;59.98
56825;BME280;42705;50.326;18.772;2022-10-13T09:42:29;99102.91;;;12.28;59.75
56825;BME280;42705;50.326;18.772;2022-10-13T09:48:05;99106.55;;;12.47;59.63
56825;BME280;42705;50.326;18.772;2022-10-13T09:53:38;99099.24;;;12.70;59.33
56825;BME280;42705;50.326;18.772;2022-10-13T10:04:34;99091.95;;;13.17;58.28
56825;BME280;42705;50.326;18.772;2022-10-13T10:10:04;99091.77;;;13.38;57.98
56825;BME280;42705;50.326;18.772;2022-10-13T10:15:35;99093.67;;;13.56;56.95
56825;BME280;42705;50.326;18.772;2022-10-13T10:21:39;99086.34;;;13.73;56.55
56825;BME280;42705;50.326;18.772;2022-10-13T10:27:05;99079.91;;;13.86;55.64
56825;BME280;42705;50.326;18.772;2022-10-13T10:33:00;99070.73;;;14.04;55.34
56825;BME280;42705;50.326;18.772;2022-10-13T10:39:04;99072.47;;;14.27;55.33
56825;BME280;42705;50.326;18.772;2022-10-13T10:44:31;99061.88;;;14.55;54.68
56825;BME280;42705;50.326;18.772;2022-10-13T10:49:58;99053.06;;;14.83;54.34
56825;BME280;42705;50.326;18.772;2022-10-13T11:01:13;99042.34;;;15.29;53.36
56825;BME280;42705;50.326;18.772;2022-10-13T11:06:38;99039.33;;;15.54;53.21
56825;BME280;42705;50.326;18.772;2022-10-13T11:11:59;99023.09;;;15.80;52.71
56825;BME280;42705;50.326;18.772;2022-10-13T11:17:31;99028.34;;;16.10;52.44
56825;BME280;42705;50.326;18.772;2022-10-13T11:34:23;99009.86;;;16.81;50.49
56825;BME280;42705;50.326;18.772;2022-10-13T11:39:52;99005.41;;;17.06;49.67
56825;BME280;42705;50.326;18.772;2022-10-13T11:56:59;98979.59;;;18.19;47.39
56825;BME280;42705;50.326;18.772;2022-10-13T12:02:24;98972.95;;;18.62;46.87
56825;BME280;42705;50.326;18.772;2022-10-13T12:07:47;98967.90;;;19.76;45.34
56825;BME280;42705;50.326;18.772;2022-10-13T12:13:25;98943.60;;;23.00;41.98
56825;BME280;42705;50.326;18.772;2022-10-13T12:18:44;98944.31;;;25.23;39.26
56825;BME280;42705;50.326;18.772;2022-10-13T12:24:07;98941.14;;;28.78;35.98
56825;BME280;42705;50.326;18.772;2022-10-13T12:29:30;98933.37;;;32.45;32.16
56825;BME280;42705;50.326;18.772;2022-10-13T12:34:51;98923.75;;;35.32;29.38
56825;BME280;42705;50.326;18.772;2022-10-13T12:40:14;98917.15;;;36.59;26.65
56825;BME280;42705;50.326;18.772;2022-10-13T12:45:36;98916.36;;;37.52;25.80
56825;BME280;42705;50.326;18.772;2022-10-13T12:51:13;98909.84;;;37.11;24.16
56825;BME280;42705;50.326;18.772;2022-10-13T12:56:40;98902.59;;;37.79;24.22
56825;BME280;42705;50.326;18.772;2022-10-13T13:02:13;98899.88;;;38.22;23.33
56825;BME280;42705;50.326;18.772;2022-10-13T13:07:35;98896.17;;;38.39;22.61
56825;BME280;42705;50.326;18.772;2022-10-13T13:13:11;98885.00;;;38.49;22.18
56825;BME280;42705;50.326;18.772;2022-10-13T13:18:37;98885.44;;;37.99;21.44
56825;BME280;42705;50.326;18.772;2022-10-13T13:24:00;98877.12;;;37.59;21.79
56825;BME280;42705;50.326;18.772;2022-10-13T13:29:21;98865.66;;;36.25;21.31
56825;BME280;42705;50.326;18.772;2022-10-13T13:34:43;98864.41;;;33.80;22.90
56825;BME280;42705;50.326;18.772;2022-10-13T13:40:09;98872.09;;;31.61;23.59
56825;BME280;42705;50.326;18.772;2022-10-13T13:45:37;98863.95;;;31.43;24.53
56825;BME280;42705;50.326;18.772;2022-10-13T13:51:00;98858.06;;;29.64;25.82
56825;BME280;42705;50.326;18.772;2022-10-13T13:56:21;98856.47;;;29.15;26.34
56825;BME280;42705;50.326;18.772;2022-10-13T14:01:42;98858.33;;;29.37;26.97
56825;BME280;42705;50.326;18.772;2022-10-13T14:07:03;98851.30;;;29.94;27.28
56825;BME280;42705;50.326;18.772;2022-10-13T14:12:24;98854.06;;;30.39;27.05
56825;BME280;42705;50.326;18.772;2022-10-13T14:17:45;98845.59;;;30.71;26.86
56825;BME280;42705;50.326;18.772;2022-10-13T14:23:06;98850.00;;;30.39;26.60
56825;BME280;42705;50.326;18.772;2022-10-13T14:28:27;98850.47;;;29.93;26.91
56825;BME280;42705;50.326;18.772;2022-10-13T14:33:49;98851.39;;;29.19;27.17
56825;BME280;42705;50.326;18.772;2022-10-13T14:39:10;98854.21;;;28.65;28.00
56825;BME280;42705;50.326;18.772;2022-10-13T14:44:31;98854.84;;;27.99;28.55
56825;BME280;42705;50.326;18.772;2022-10-13T14:49:52;98851.94;;;28.03;29.29
56825;BME280;42705;50.326;18.772;2022-10-13T14:55:13;98845.62;;;27.78;29.36
56825;BME280;42705;50.326;18.772;2022-10-13T15:00:36;98839.06;;;27.27;29.81
56825;BME280;42705;50.326;18.772;2022-10-13T15:05:59;98834.55;;;26.75;30.28
56825;BME280;42705;50.326;18.772;2022-10-13T15:11:23;98834.95;;;26.31;30.96
56825;BME280;42705;50.326;18.772;2022-10-13T15:16:44;98834.99;;;25.77;31.53
56825;BME280;42705;50.326;18.772;2022-10-13T15:22:05;98830.09;;;25.12;32.21
56825;BME280;42705;50.326;18.772;2022-10-13T15:27:26;98835.28;;;24.42;32.94
56825;BME280;42705;50.326;18.772;2022-10-13T15:32:48;98837.56;;;23.62;33.86
56825;BME280;42705;50.326;18.772;2022-10-13T15:38:10;98829.32;;;22.79;34.92
56825;BME280;42705;50.326;18.772;2022-10-13T15:43:31;98826.44;;;22.11;35.92
56825;BME280;42705;50.326;18.772;2022-10-13T15:48:53;98825.45;;;21.40;37.00
56825;BME280;42705;50.326;18.772;2022-10-13T15:54:18;98824.78;;;20.76;37.98
56825;BME280;42705;50.326;18.772;2022-10-13T15:59:39;98820.11;;;20.15;39.01
56825;BME280;42705;50.326;18.772;2022-10-13T16:05:00;98824.61;;;19.60;39.95
56825;BME280;42705;50.326;18.772;2022-10-13T16:10:23;98825.00;;;19.09;40.92
56825;BME280;42705;50.326;18.772;2022-10-13T16:15:56;98834.82;;;18.63;41.83
56825;BME280;42705;50.326;18.772;2022-10-13T16:21:21;98834.09;;;18.20;42.68
56825;BME280;42705;50.326;18.772;2022-10-13T16:26:43;98837.54;;;17.83;43.59
56825;BME280;42705;50.326;18.772;2022-10-13T16:32:04;98832.14;;;17.48;44.40
56825;BME280;42705;50.326;18.772;2022-10-13T16:37:25;98832.63;;;17.20;45.10
56825;BME280;42705;50.326;18.772;2022-10-13T16:42:46;98833.38;;;16.93;45.86
56825;BME280;42705;50.326;18.772;2022-10-13T16:48:08;98834.14;;;16.71;46.49
56825;BME280;42705;50.326;18.772;2022-10-13T16:53:29;98833.86;;;16.49;47.09
56825;BME280;42705;50.326;18.772;2022-10-13T16:58:53;98827.13;;;16.30;47.73
56825;BME280;42705;50.326;18.772;2022-10-13T17:04:16;98832.60;;;16.12;48.28
56825;BME280;42705;50.326;18.772;2022-10-13T17:09:37;98840.88;;;15.96;48.88
56825;BME280;42705;50.326;18.772;2022-10-13T17:14:58;98842.15;;;15.84;49.45
56825;BME280;42705;50.326;18.772;2022-10-13T17:20:20;98834.41;;;15.74;49.99
56825;BME280;42705;50.326;18.772;2022-10-13T17:25:40;98833.56;;;15.65;50.50
56825;BME280;42705;50.326;18.772;2022-10-13T17:31:05;98831.88;;;15.52;51.10
56825;BME280;42705;50.326;18.772;2022-10-13T17:36:29;98835.34;;;15.40;51.64
56825;BME280;42705;50.326;18.772;2022-10-13T17:41:55;98835.82;;;15.35;52.02
56825;BME280;42705;50.326;18.772;2022-10-13T17:47:16;98832.52;;;15.29;52.40
56825;BME280;42705;50.326;18.772;2022-10-13T17:52:37;98838.78;;;15.28;52.63
56825;BME280;42705;50.326;18.772;2022-10-13T17:57:58;98830.66;;;15.21;52.85
56825;BME280;42705;50.326;18.772;2022-10-13T18:03:19;98833.95;;;15.11;52.84
56825;BME280;42705;50.326;18.772;2022-10-13T18:08:41;98837.04;;;15.02;52.70
56825;BME280;42705;50.326;18.772;2022-10-13T18:14:03;98834.84;;;14.89;52.89
56825;BME280;42705;50.326;18.772;2022-10-13T18:19:25;98838.10;;;14.79;53.01
56825;BME280;42705;50.326;18.772;2022-10-13T18:24:46;98834.78;;;14.72;53.16
56825;BME280;42705;50.326;18.772;2022-10-13T18:30:08;98829.65;;;14.71;53.30
56825;BME280;42705;50.326;18.772;2022-10-13T18:35:30;98834.40;;;14.67;53.32
56825;BME280;42705;50.326;18.772;2022-10-13T18:40:52;98828.23;;;14.54;53.35
56825;BME280;42705;50.326;18.772;2022-10-13T18:46:14;98825.53;;;14.42;53.38
56825;BME280;42705;50.326;18.772;2022-10-13T18:51:35;98828.38;;;14.26;53.60
56825;BME280;42705;50.326;18.772;2022-10-13T18:56:57;98823.27;;;14.21;53.84
56825;BME280;42705;50.326;18.772;2022-10-13T19:02:18;98817.60;;;14.15;53.89
56825;BME280;42705;50.326;18.772;2022-10-13T19:07:40;98823.52;;;14.13;54.01
56825;BME280;42705;50.326;18.772;2022-10-13T19:13:02;98820.52;;;14.08;54.08
56825;BME280;42705;50.326;18.772;2022-10-13T19:18:23;98822.66;;;14.04;54.17
56825;BME280;42705;50.326;18.772;2022-10-13T19:23:46;98812.84;;;13.93;54.26
56825;BME280;42705;50.326;18.772;2022-10-13T19:29:11;98815.42;;;13.84;54.48
56825;BME280;42705;50.326;18.772;2022-10-13T19:34:36;98810.70;;;13.74;54.50
56825;BME280;42705;50.326;18.772;2022-10-13T19:39:59;98811.31;;;13.68;54.55
56825;BME280;42705;50.326;18.772;2022-10-13T19:45:23;98804.34;;;13.58;54.49
56825;BME280;42705;50.326;18.772;2022-10-13T19:50:46;98808.72;;;13.40;54.68
56825;BME280;42705;50.326;18.772;2022-10-13T19:56:20;98808.53;;;13.19;54.95
56825;BME280;42705;50.326;18.772;2022-10-13T20:01:44;98817.02;;;13.13;55.20
56825;BME280;42705;50.326;18.772;2022-10-13T20:07:09;98813.07;;;13.13;55.34
56825;BME280;42705;50.326;18.772;2022-10-13T20:12:30;98819.44;;;13.10;55.39
56825;BME280;42705;50.326;18.772;2022-10-13T20:17:51;98814.48;;;13.07;55.48
56825;BME280;42705;50.326;18.772;2022-10-13T20:23:13;98812.62;;;13.03;55.58
56825;BME280;42705;50.326;18.772;2022-10-13T20:28:34;98815.70;;;12.99;55.71
56825;BME280;42705;50.326;18.772;2022-10-13T20:33:59;98808.41;;;12.93;55.91
56825;BME280;42705;50.326;18.772;2022-10-13T20:39:22;98798.61;;;12.85;56.05
56825;BME280;42705;50.326;18.772;2022-10-13T20:44:43;98804.59;;;12.77;56.21
56825;BME280;42705;50.326;18.772;2022-10-13T20:50:06;98803.73;;;12.72;56.36
56825;BME280;42705;50.326;18.772;2022-10-13T20:55:28;98797.24;;;12.67;56.53
56825;BME280;42705;50.326;18.772;2022-10-13T21:00:49;98804.79;;;12.66;56.61
56825;BME280;42705;50.326;18.772;2022-10-13T21:06:12;98803.47;;;12.66;56.73
56825;BME280;42705;50.326;18.772;2022-10-13T21:11:34;98804.97;;;12.68;56.86
56825;BME280;42705;50.326;18.772;2022-10-13T21:16:56;98810.97;;;12.61;56.91
56825;BME280;42705;50.326;18.772;2022-10-13T21:22:17;98807.45;;;12.56;57.09
56825;BME280;42705;50.326;18.772;2022-10-13T21:27:38;98800.83;;;12.52;57.14
56825;BME280;42705;50.326;18.772;2022-10-13T21:33:00;98785.35;;;12.49;57.14
56825;BME280;42705;50.326;18.772;2022-10-13T21:38:21;98794.55;;;12.49;57.27
56825;BME280;42705;50.326;18.772;2022-10-13T21:43:42;98784.41;;;12.40;57.37
56825;BME280;42705;50.326;18.772;2022-10-13T21:49:04;98783.25;;;12.38;57.54
56825;BME280;42705;50.326;18.772;2022-10-13T21:54:26;98789.34;;;12.29;57.63
56825;BME280;42705;50.326;18.772;2022-10-13T21:59:47;98794.47;;;12.30;57.89
56825;BME280;42705;50.326;18.772;2022-10-13T22:05:08;98795.26;;;12.41;58.11
56825;BME280;42705;50.326;18.772;2022-10-13T22:10:29;98794.77;;;12.51;58.22
56825;BME280;42705;50.326;18.772;2022-10-13T22:15:51;98791.79;;;12.50;58.19
56825;BME280;42705;50.326;18.772;2022-10-13T22:21:18;98794.55;;;12.49;58.34
56825;BME280;42705;50.326;18.772;2022-10-13T22:26:45;98792.73;;;12.49;58.39
56825;BME280;42705;50.326;18.772;2022-10-13T22:32:07;98783.75;;;12.52;58.44
56825;BME280;42705;50.326;18.772;2022-10-13T22:37:28;98781.46;;;12.53;58.48
56825;BME280;42705;50.326;18.772;2022-10-13T22:42:49;98784.17;;;12.47;58.58
56825;BME280;42705;50.326;18.772;2022-10-13T22:48:10;98778.10;;;12.47;58.71
56825;BME280;42705;50.326;18.772;2022-10-13T22:53:32;98777.50;;;12.39;58.89
56825;BME280;42705;50.326;18.772;2022-10-13T22:58:56;98762.61;;;12.29;59.24
56825;BME280;42705;50.326;18.772;2022-10-13T23:04:19;98757.64;;;12.26;59.52
56825;BME280;42705;50.326;18.772;2022-10-13T23:09:40;98754.94;;;12.32;59.68
56825;BME280;42705;50.326;18.772;2022-10-13T23:15:01;98755.27;;;12.33;59.67
56825;BME280;42705;50.326;18.772;2022-10-13T23:20:25;98752.07;;;12.39;59.73
56825;BME280;42705;50.326;18.772;2022-10-13T23:25:46;98750.09;;;12.51;59.90
56825;BME280;42705;50.326;18.772;2022-10-13T23:31:13;98742.77;;;12.59;59.98
56825;BME280;42705;50.326;18.772;2022-10-13T23:36:35;98744.42;;;12.60;60.00
56825;BME280;42705;50.326;18.772;2022-10-13T23:41:56;98748.32;;;12.56;60.03
56825;BME280;42705;50.326;18.772;2022-10-13T23:47:17;98749.38;;;12.49;60.05
56825;BME280;42705;50.326;18.772;2022-10-13T23:52:39;98747.25;;;12.49;60.23
56825;BME280;42705;50.326;18.772;2022-10-13T23:58:00;98738.94;;;12.53;60.43
